createdAt,value
2023-04-18T00:00:36.330Z,1028.91
2023-04-18T00:01:40.467Z,1028.91
2023-04-18T00:02:44.887Z,1028.94
2023-04-18T00:03:49.697Z,1028.88
2023-04-18T00:04:53.707Z,1028.88
2023-04-18T00:05:58.140Z,1028.86
2023-04-18T00:07:02.268Z,1028.82
2023-04-18T00:08:06.855Z,1028.90
2023-04-18T00:09:11.231Z,1028.87
2023-04-18T00:10:15.559Z,1028.80
2023-04-18T00:11:19.923Z,1028.83
2023-04-18T00:12:24.023Z,1028.81
2023-04-18T00:13:28.410Z,1028.81
2023-04-18T00:14:32.722Z,1028.82
2023-04-18T00:15:37.084Z,1028.79
2023-04-18T00:16:41.978Z,1028.79
2023-04-18T00:17:46.080Z,1028.77
2023-04-18T00:18:50.428Z,1028.75
2023-04-18T00:19:54.511Z,1028.75
2023-04-18T00:20:58.877Z,1028.75
2023-04-18T00:22:03.508Z,1028.74
2023-04-18T00:23:07.583Z,1028.67
2023-04-18T00:24:12.505Z,1028.70
2023-04-18T00:25:16.284Z,1028.67
2023-04-18T00:26:20.905Z,1028.66
2023-04-18T00:27:20.846Z,1028.61
2023-04-18T00:28:25.422Z,1028.67
2023-04-18T00:29:29.764Z,1028.69
2023-04-18T00:30:33.854Z,1028.69
2023-04-18T00:31:38.171Z,1028.70
2023-04-18T00:32:42.885Z,1028.69
2023-04-18T00:33:47.128Z,1028.68
2023-04-18T00:34:51.477Z,1028.70
2023-04-18T00:35:55.559Z,1028.68
2023-04-18T00:37:00.420Z,1028.67
2023-04-18T00:38:04.514Z,1028.67
2023-04-18T00:39:08.844Z,1028.67
2023-04-18T00:40:12.951Z,1028.68
2023-04-18T00:41:17.273Z,1028.67
2023-04-18T00:42:21.878Z,1028.64
2023-04-18T00:43:25.974Z,1028.65
2023-04-18T00:44:30.310Z,1028.69
2023-04-18T00:45:34.929Z,1028.70
2023-04-18T00:46:39.348Z,1028.66
2023-04-18T00:47:43.642Z,1028.66
2023-04-18T00:48:47.660Z,1028.70
2023-04-18T00:49:52.257Z,1028.72
2023-04-18T00:50:56.371Z,1028.68
2023-04-18T00:52:00.714Z,1028.68
2023-04-18T00:53:05.294Z,1028.72
2023-04-18T00:54:09.689Z,1028.66
2023-04-18T00:55:13.990Z,1028.74
2023-04-18T00:56:18.616Z,1028.70
2023-04-18T00:57:18.831Z,1028.70
2023-04-18T00:58:23.158Z,1028.64
2023-04-18T00:59:27.250Z,1028.68
2023-04-18T01:00:31.602Z,1028.66
2023-04-18T01:01:35.968Z,1028.64
2023-04-18T01:02:40.207Z,1028.63
2023-04-18T01:03:44.886Z,1028.63
2023-04-18T01:04:49.028Z,1028.63
2023-04-18T01:05:53.104Z,1028.65
2023-04-18T01:06:57.954Z,1028.61
2023-04-18T01:08:02.348Z,1028.60
2023-04-18T01:09:06.160Z,1028.61
2023-04-18T01:10:10.797Z,1028.65
2023-04-18T01:11:14.096Z,1028.62
2023-04-18T01:12:19.504Z,1028.67
2023-04-18T01:13:23.562Z,1028.62
2023-04-18T01:14:28.163Z,1028.65
2023-04-18T01:15:32.749Z,1028.61
2023-04-18T01:16:37.302Z,1028.63
2023-04-18T01:17:41.031Z,1028.65
2023-04-18T01:18:45.257Z,1028.61
2023-04-18T01:19:49.871Z,1028.61
2023-04-18T01:20:54.679Z,1028.58
2023-04-18T01:21:59.011Z,1028.60
2023-04-18T01:23:03.082Z,1028.61
2023-04-18T01:24:07.929Z,1028.65
2023-04-18T01:25:12.052Z,1028.54
2023-04-18T01:26:16.647Z,1028.52
2023-04-18T01:27:16.798Z,1028.53
2023-04-18T01:28:20.923Z,1028.54
2023-04-18T01:29:24.979Z,1028.54
2023-04-18T01:30:29.337Z,1028.54
2023-04-18T01:31:33.715Z,1028.53
2023-04-18T01:32:38.078Z,1028.50
2023-04-18T01:33:42.413Z,1028.55
2023-04-18T01:34:47.025Z,1028.53
2023-04-18T01:35:51.628Z,1028.47
2023-04-18T01:36:55.993Z,1028.50
2023-04-18T01:37:59.851Z,1028.50
2023-04-18T01:39:04.209Z,1028.50
2023-04-18T01:40:08.811Z,1028.49
2023-04-18T01:41:12.899Z,1028.49
2023-04-18T01:42:17.263Z,1028.48
2023-04-18T01:43:21.638Z,1028.49
2023-04-18T01:44:26.271Z,1028.49
2023-04-18T01:45:30.594Z,1028.48
2023-04-18T01:46:34.979Z,1028.45
2023-04-18T01:47:39.074Z,1028.42
2023-04-18T01:48:43.684Z,1028.42
2023-04-18T01:49:48.048Z,1028.42
2023-04-18T01:50:52.126Z,1028.46
2023-04-18T01:51:56.798Z,1028.44
2023-04-18T01:53:01.131Z,1028.40
2023-04-18T01:54:05.745Z,1028.41
2023-04-18T01:55:10.093Z,1028.45
2023-04-18T01:56:13.937Z,1028.43
2023-04-18T01:57:14.580Z,1028.39
2023-04-18T01:58:18.421Z,1028.43
2023-04-18T01:59:22.748Z,1028.41
2023-04-18T02:00:27.495Z,1028.41
2023-04-18T02:01:31.700Z,1028.35
2023-04-18T02:02:36.093Z,1028.44
2023-04-18T02:03:40.359Z,1028.43
2023-04-18T02:04:44.450Z,1028.41
2023-04-18T02:05:49.081Z,1028.42
2023-04-18T02:06:53.455Z,1028.38
2023-04-18T02:07:57.538Z,1028.40
2023-04-18T02:09:01.887Z,1028.38
2023-04-18T02:10:06.545Z,1028.35
2023-04-18T02:11:10.620Z,1028.38
2023-04-18T02:12:15.286Z,1028.40
2023-04-18T02:13:19.607Z,1028.40
2023-04-18T02:14:24.206Z,1028.39
2023-04-18T02:15:28.555Z,1028.49
2023-04-18T02:16:32.468Z,1028.42
2023-04-18T02:17:36.826Z,1028.41
2023-04-18T02:18:41.389Z,1028.46
2023-04-18T02:19:45.497Z,1028.42
2023-04-18T02:20:49.859Z,1028.42
2023-04-18T02:21:54.206Z,1028.43
2023-04-18T02:22:58.834Z,1028.43
2023-04-18T02:24:03.198Z,1028.50
2023-04-18T02:25:07.538Z,1028.48
2023-04-18T02:26:11.615Z,1028.51
2023-04-18T02:27:12.549Z,1028.47
2023-04-18T02:28:16.117Z,1028.50
2023-04-18T02:29:20.712Z,1028.43
2023-04-18T02:30:25.080Z,1028.46
2023-04-18T02:31:29.205Z,1028.42
2023-04-18T02:32:33.902Z,1028.44
2023-04-18T02:33:38.128Z,1028.46
2023-04-18T02:34:42.498Z,1028.46
2023-04-18T02:35:46.843Z,1028.47
2023-04-18T02:36:50.946Z,1028.44
2023-04-18T02:37:55.291Z,1028.46
2023-04-18T02:38:59.910Z,1028.46
2023-04-18T02:40:03.993Z,1028.47
2023-04-18T02:41:08.343Z,1028.48
2023-04-18T02:42:12.687Z,1028.46
2023-04-18T02:43:17.039Z,1028.45
2023-04-18T02:44:21.923Z,1028.47
2023-04-18T02:45:26.285Z,1028.52
2023-04-18T02:46:30.426Z,1028.54
2023-04-18T02:47:46.984Z,1028.48
2023-04-18T02:48:38.826Z,1028.51
2023-04-18T02:49:43.429Z,1028.52
2023-04-18T02:50:47.515Z,1028.49
2023-04-18T02:51:52.124Z,1028.54
2023-04-18T02:52:56.726Z,1028.49
2023-04-18T02:54:00.813Z,1028.45
2023-04-18T02:55:04.975Z,1028.51
2023-04-18T02:56:09.263Z,1028.47
2023-04-18T02:57:09.686Z,1028.52
2023-04-18T02:58:14.023Z,1028.48
2023-04-18T02:59:18.105Z,1028.52
2023-04-18T03:00:22.723Z,1028.56
2023-04-18T03:01:27.088Z,1028.53
2023-04-18T03:02:31.484Z,1028.56
2023-04-18T03:03:35.658Z,1028.55
2023-04-18T03:04:40.165Z,1028.56
2023-04-18T03:05:44.452Z,1028.59
2023-04-18T03:06:48.551Z,1028.57
2023-04-18T03:07:53.145Z,1028.52
2023-04-18T03:08:57.548Z,1028.55
2023-04-18T03:10:01.671Z,1028.59
2023-04-18T03:11:06.232Z,1028.54
2023-04-18T03:12:10.280Z,1028.54
2023-04-18T03:13:14.890Z,1028.57
2023-04-18T03:14:19.224Z,1028.58
2023-04-18T03:15:23.578Z,1028.56
2023-04-18T03:16:27.949Z,1028.60
2023-04-18T03:17:32.020Z,1028.62
2023-04-18T03:18:36.353Z,1028.61
2023-04-18T03:19:40.688Z,1028.63
2023-04-18T03:20:45.070Z,1028.65
2023-04-18T03:21:49.405Z,1028.63
2023-04-18T03:22:54.000Z,1028.67
2023-04-18T03:23:58.346Z,1028.62
2023-04-18T03:25:02.444Z,1028.64
2023-04-18T03:26:06.783Z,1028.63
2023-04-18T03:27:12.435Z,1028.64
2023-04-18T03:28:16.523Z,1028.61
2023-04-18T03:29:21.105Z,1028.66
2023-04-18T03:30:25.711Z,1028.66
2023-04-18T03:31:30.066Z,1028.61
2023-04-18T03:32:33.962Z,1028.65
2023-04-18T03:33:38.531Z,1028.61
2023-04-18T03:34:42.577Z,1028.58
2023-04-18T03:35:47.196Z,1028.57
2023-04-18T03:36:51.600Z,1028.57
2023-04-18T03:37:55.597Z,1028.61
2023-04-18T03:39:00.199Z,1028.61
2023-04-18T03:40:04.548Z,1028.59
2023-04-18T03:41:09.120Z,1028.60
2023-04-18T03:42:12.963Z,1028.60
2023-04-18T03:43:17.307Z,1028.61
2023-04-18T03:44:21.679Z,1028.58
2023-04-18T03:45:26.001Z,1028.63
2023-04-18T03:46:30.379Z,1028.63
2023-04-18T03:47:34.804Z,1028.67
2023-04-18T03:48:39.547Z,1028.68
2023-04-18T03:49:43.664Z,1028.69
2023-04-18T03:50:47.969Z,1028.72
2023-04-18T03:51:52.051Z,1028.68
2023-04-18T03:52:56.728Z,1028.73
2023-04-18T03:54:01.009Z,1028.71
2023-04-18T03:55:05.100Z,1028.73
2023-04-18T03:56:09.700Z,1028.79
2023-04-18T03:57:15.332Z,1028.78
2023-04-18T03:58:19.393Z,1028.80
2023-04-18T03:59:23.743Z,1028.76
2023-04-18T04:00:27.044Z,1028.74
2023-04-18T04:01:32.431Z,1028.78
2023-04-18T04:02:36.933Z,1028.77
2023-04-18T04:03:41.317Z,1028.79
2023-04-18T04:04:45.192Z,1028.73
2023-04-18T04:05:49.527Z,1028.76
2023-04-18T04:06:54.370Z,1028.74
2023-04-18T04:07:58.744Z,1028.78
2023-04-18T04:09:02.559Z,1028.77
2023-04-18T04:10:07.137Z,1028.74
2023-04-18T04:11:11.485Z,1028.78
2023-04-18T04:12:15.568Z,1028.79
2023-04-18T04:13:19.917Z,1028.82
2023-04-18T04:14:24.532Z,1028.76
2023-04-18T04:15:29.122Z,1028.78
2023-04-18T04:16:33.583Z,1028.77
2023-04-18T04:17:37.610Z,1028.81
2023-04-18T04:18:41.945Z,1028.82
2023-04-18T04:19:46.010Z,1028.79
2023-04-18T04:20:50.632Z,1028.81
2023-04-18T04:21:54.981Z,1028.78
2023-04-18T04:22:59.075Z,1028.83
2023-04-18T04:24:03.481Z,1028.80
2023-04-18T04:25:08.037Z,1028.79
2023-04-18T04:26:12.102Z,1028.85
2023-04-18T04:27:17.715Z,1028.85
2023-04-18T04:28:22.067Z,1028.86
2023-04-18T04:29:26.404Z,1028.88
2023-04-18T04:30:30.496Z,1028.85
2023-04-18T04:31:34.917Z,1028.88
2023-04-18T04:32:39.531Z,1028.88
2023-04-18T04:33:43.800Z,1028.89
2023-04-18T04:34:48.111Z,1028.88
2023-04-18T04:35:52.460Z,1028.89
2023-04-18T04:36:56.561Z,1028.85
2023-04-18T04:38:01.155Z,1028.89
2023-04-18T04:39:05.523Z,1028.93
2023-04-18T04:40:09.597Z,1028.90
2023-04-18T04:41:13.934Z,1028.94
2023-04-18T04:42:18.537Z,1028.93
2023-04-18T04:43:23.113Z,1028.96
2023-04-18T04:44:27.064Z,1028.93
2023-04-18T04:45:31.285Z,1028.94
2023-04-18T04:46:35.874Z,1028.96
2023-04-18T04:47:40.236Z,1028.94
2023-04-18T04:48:44.543Z,1028.93
2023-04-18T04:49:48.865Z,1028.96
2023-04-18T04:50:53.213Z,1028.98
2023-04-18T04:51:59.542Z,1028.99
2023-04-18T04:53:01.929Z,1029.00
2023-04-18T04:54:06.000Z,1028.98
2023-04-18T04:55:10.600Z,1029.00
2023-04-18T04:56:14.942Z,1028.99
2023-04-18T04:57:20.560Z,1028.99
2023-04-18T04:58:24.615Z,1028.98
2023-04-18T04:59:29.229Z,1028.97
2023-04-18T05:00:33.540Z,1029.02
2023-04-18T05:01:37.678Z,1029.03
2023-04-18T05:02:42.069Z,1029.00
2023-04-18T05:03:46.249Z,1029.06
2023-04-18T05:04:50.617Z,1029.02
2023-04-18T05:05:54.836Z,1029.01
2023-04-18T05:06:59.161Z,1029.04
2023-04-18T05:08:03.764Z,1029.01
2023-04-18T05:09:08.083Z,1029.04
2023-04-18T05:10:12.678Z,1029.04
2023-04-18T05:11:16.520Z,1029.03
2023-04-18T05:12:20.881Z,1029.00
2023-04-18T05:13:25.210Z,1029.00
2023-04-18T05:14:29.544Z,1029.03
2023-04-18T05:15:33.887Z,1029.06
2023-04-18T05:16:38.275Z,1029.01
2023-04-18T05:17:43.115Z,1029.04
2023-04-18T05:18:47.426Z,1029.06
2023-04-18T05:19:51.524Z,1029.09
2023-04-18T05:20:55.615Z,1029.07
2023-04-18T05:22:00.231Z,1029.09
2023-04-18T05:23:04.312Z,1029.06
2023-04-18T05:24:08.671Z,1029.10
2023-04-18T05:25:13.285Z,1029.06
2023-04-18T05:26:17.632Z,1029.10
2023-04-18T05:27:23.244Z,1029.10
2023-04-18T05:28:27.368Z,1029.15
2023-04-18T05:29:31.438Z,1029.13
2023-04-18T05:30:35.943Z,1029.18
2023-04-18T05:31:40.126Z,1029.13
2023-04-18T05:32:44.795Z,1029.17
2023-04-18T05:33:49.087Z,1029.17
2023-04-18T05:34:53.177Z,1029.20
2023-04-18T05:35:57.826Z,1029.21
2023-04-18T05:37:01.895Z,1029.18
2023-04-18T05:38:06.494Z,1029.19
2023-04-18T05:39:10.588Z,1029.21
2023-04-18T05:40:14.929Z,1029.19
2023-04-18T05:41:19.283Z,1029.19
2023-04-18T05:42:23.615Z,1029.19
2023-04-18T05:43:28.006Z,1029.17
2023-04-18T05:44:32.852Z,1029.21
2023-04-18T05:45:36.928Z,1029.22
2023-04-18T05:46:41.064Z,1029.18
2023-04-18T05:47:45.421Z,1029.17
2023-04-18T05:48:49.691Z,1029.20
2023-04-18T05:49:54.044Z,1029.20
2023-04-18T05:50:58.383Z,1029.19
2023-04-18T05:52:02.727Z,1029.20
2023-04-18T05:53:07.320Z,1029.25
2023-04-18T05:54:11.701Z,1029.24
2023-04-18T05:55:16.018Z,1029.26
2023-04-18T05:56:20.105Z,1029.27
2023-04-18T05:57:26.061Z,1029.30
2023-04-18T05:58:30.062Z,1029.31
2023-04-18T05:59:34.407Z,1029.32
2023-04-18T06:00:38.867Z,1029.35
2023-04-18T06:01:43.131Z,1029.32
2023-04-18T06:02:47.827Z,1029.37
2023-04-18T06:03:51.894Z,1029.42
2023-04-18T06:04:56.326Z,1029.40
2023-04-18T06:06:00.562Z,1029.41
2023-04-18T06:07:04.863Z,1029.39
2023-04-18T06:08:08.966Z,1029.48
2023-04-18T06:09:13.323Z,1029.46
2023-04-18T06:10:17.664Z,1029.48
2023-04-18T06:11:22.525Z,1029.48
2023-04-18T06:12:26.871Z,1029.52
2023-04-18T06:13:30.998Z,1029.52
2023-04-18T06:14:35.066Z,1029.53
2023-04-18T06:15:39.693Z,1029.53
2023-04-18T06:16:44.158Z,1029.58
2023-04-18T06:17:48.147Z,1029.56
2023-04-18T06:18:52.726Z,1029.53
2023-04-18T06:19:57.099Z,1029.55
2023-04-18T06:21:01.698Z,1029.54
2023-04-18T06:22:05.510Z,1029.51
2023-04-18T06:23:09.864Z,1029.57
2023-04-18T06:24:14.363Z,1029.54
2023-04-18T06:25:18.784Z,1029.54
2023-04-18T06:26:23.128Z,1029.50
2023-04-18T06:27:31.549Z,1029.50
2023-04-18T06:28:33.091Z,1029.50
2023-04-18T06:29:38.083Z,1029.54
2023-04-18T06:30:41.518Z,1029.52
2023-04-18T06:31:45.707Z,1029.59
2023-04-18T06:32:50.292Z,1029.58
2023-04-18T06:33:54.611Z,1029.63
2023-04-18T06:34:58.694Z,1029.60
2023-04-18T06:36:03.304Z,1029.60
2023-04-18T06:37:07.644Z,1029.61
2023-04-18T06:38:12.248Z,1029.58
2023-04-18T06:39:16.341Z,1029.64
2023-04-18T06:40:20.448Z,1029.63
2023-04-18T06:41:24.791Z,1029.64
2023-04-18T06:42:29.405Z,1029.63
2023-04-18T06:43:33.487Z,1029.66
2023-04-18T06:44:37.858Z,1029.68
2023-04-18T06:45:42.502Z,1029.62
2023-04-18T06:46:47.045Z,1029.65
2023-04-18T06:47:51.240Z,1029.67
2023-04-18T06:48:55.485Z,1029.67
2023-04-18T06:49:59.591Z,1029.68
2023-04-18T06:51:04.203Z,1029.71
2023-04-18T06:52:08.552Z,1029.72
2023-04-18T06:53:12.910Z,1029.75
2023-04-18T06:54:16.983Z,1029.78
2023-04-18T06:55:21.593Z,1029.75
2023-04-18T06:56:26.210Z,1029.75
2023-04-18T06:57:31.535Z,1029.75
2023-04-18T06:58:35.368Z,1029.78
2023-04-18T06:59:39.709Z,1029.75
2023-04-18T07:00:44.094Z,1029.75
2023-04-18T07:01:48.400Z,1029.75
2023-04-18T07:02:52.968Z,1029.76
2023-04-18T07:03:57.449Z,1029.79
2023-04-18T07:05:01.710Z,1029.76
2023-04-18T07:06:05.789Z,1029.76
2023-04-18T07:07:10.790Z,1029.77
2023-04-18T07:08:15.074Z,1029.82
2023-04-18T07:09:19.158Z,1029.86
2023-04-18T07:10:24.201Z,1029.81
2023-04-18T07:11:28.668Z,1029.82
2023-04-18T07:12:32.723Z,1029.86
2023-04-18T07:13:37.062Z,1029.84
2023-04-18T07:14:41.411Z,1029.87
2023-04-18T07:15:45.515Z,1029.89
2023-04-18T07:16:49.923Z,1029.86
2023-04-18T07:17:54.261Z,1029.86
2023-04-18T07:18:58.849Z,1029.90
2023-04-18T07:20:03.006Z,1029.92
2023-04-18T07:21:08.022Z,1029.90
2023-04-18T07:22:12.187Z,1029.90
2023-04-18T07:23:16.580Z,1029.92
2023-04-18T07:24:20.397Z,1029.91
2023-04-18T07:25:24.744Z,1029.90
2023-04-18T07:26:29.386Z,1029.93
2023-04-18T07:27:34.993Z,1029.94
2023-04-18T07:28:38.822Z,1029.94
2023-04-18T07:29:43.487Z,1029.95
2023-04-18T07:30:48.046Z,1029.95
2023-04-18T07:31:52.415Z,1029.97
2023-04-18T07:32:56.301Z,1029.96
2023-04-18T07:34:00.877Z,1029.96
2023-04-18T07:35:04.979Z,1029.90
2023-04-18T07:36:09.532Z,1029.97
2023-04-18T07:37:14.863Z,1029.97
2023-04-18T07:38:18.115Z,1030.05
2023-04-18T07:39:22.685Z,1030.04
2023-04-18T07:40:27.325Z,1030.07
2023-04-18T07:41:31.160Z,1030.07
2023-04-18T07:42:43.528Z,1030.07
2023-04-18T07:43:39.895Z,1030.12
2023-04-18T07:44:44.520Z,1030.03
2023-04-18T07:45:48.721Z,1030.15
2023-04-18T07:46:53.214Z,1030.12
2023-04-18T07:47:57.617Z,1030.14
2023-04-18T07:49:02.296Z,1030.14
2023-04-18T07:50:06.592Z,1030.15
2023-04-18T07:51:10.690Z,1030.09
2023-04-18T07:52:15.027Z,1030.13
2023-04-18T07:53:19.364Z,1030.15
2023-04-18T07:54:23.428Z,1030.19
2023-04-18T07:55:27.746Z,1030.17
2023-04-18T07:56:32.337Z,1030.15
2023-04-18T07:57:38.239Z,1030.15
2023-04-18T07:58:41.793Z,1030.17
2023-04-18T07:59:46.167Z,1030.17
2023-04-18T08:00:50.813Z,1030.14
2023-04-18T08:01:55.183Z,1030.18
2023-04-18T08:02:59.674Z,1030.20
2023-04-18T08:04:04.087Z,1030.23
2023-04-18T08:05:08.163Z,1030.22
2023-04-18T08:06:12.913Z,1030.24
2023-04-18T08:07:17.052Z,1030.27
2023-04-18T08:08:21.378Z,1030.27
2023-04-18T08:09:25.460Z,1030.27
2023-04-18T08:10:29.797Z,1030.23
2023-04-18T08:11:34.127Z,1030.30
2023-04-18T08:12:38.714Z,1030.30
2023-04-18T08:13:43.094Z,1030.29
2023-04-18T08:14:47.688Z,1030.33
2023-04-18T08:15:52.031Z,1030.32
2023-04-18T08:16:56.103Z,1030.30
2023-04-18T08:18:00.351Z,1030.31
2023-04-18T08:19:04.784Z,1030.32
2023-04-18T08:20:09.151Z,1030.31
2023-04-18T08:21:13.465Z,1030.34
2023-04-18T08:22:17.537Z,1030.30
2023-04-18T08:23:22.285Z,1030.33
2023-04-18T08:24:26.807Z,1030.32
2023-04-18T08:25:31.111Z,1030.28
2023-04-18T08:26:34.943Z,1030.29
2023-04-18T08:27:40.569Z,1030.29
2023-04-18T08:28:46.371Z,1030.28
2023-04-18T08:29:49.001Z,1030.27
2023-04-18T08:30:53.319Z,1030.28
2023-04-18T08:31:57.742Z,1030.29
2023-04-18T08:33:02.688Z,1030.30
2023-04-18T08:34:06.659Z,1030.24
2023-04-18T08:35:11.246Z,1030.26
2023-04-18T08:36:15.320Z,1030.22
2023-04-18T08:37:19.406Z,1030.30
2023-04-18T08:38:23.760Z,1030.33
2023-04-18T08:39:28.425Z,1030.35
2023-04-18T08:40:32.723Z,1030.34
2023-04-18T08:41:37.027Z,1030.33
2023-04-18T08:42:41.376Z,1030.29
2023-04-18T08:43:45.724Z,1030.31
2023-04-18T08:44:50.065Z,1030.34
2023-04-18T08:45:54.497Z,1030.36
2023-04-18T08:46:58.533Z,1030.33
2023-04-18T08:48:03.272Z,1030.33
2023-04-18T08:49:07.458Z,1030.32
2023-04-18T08:50:11.532Z,1030.31
2023-04-18T08:51:16.373Z,1030.30
2023-04-18T08:52:20.214Z,1030.35
2023-04-18T08:53:24.823Z,1030.33
2023-04-18T08:54:28.891Z,1030.33
2023-04-18T08:55:33.517Z,1030.35
2023-04-18T08:56:37.568Z,1030.30
2023-04-18T08:57:43.177Z,1030.33
2023-04-18T08:58:47.268Z,1030.33
2023-04-18T08:59:51.852Z,1030.32
2023-04-18T09:00:55.981Z,1030.35
2023-04-18T09:02:00.297Z,1030.33
2023-04-18T09:03:05.055Z,1030.33
2023-04-18T09:04:09.285Z,1030.36
2023-04-18T09:05:13.569Z,1030.33
2023-04-18T09:06:17.904Z,1030.35
2023-04-18T09:07:22.228Z,1030.37
2023-04-18T09:08:26.574Z,1030.36
2023-04-18T09:09:31.191Z,1030.34
2023-04-18T09:10:35.290Z,1030.35
2023-04-18T09:11:39.632Z,1030.41
2023-04-18T09:12:43.960Z,1030.39
2023-04-18T09:13:48.029Z,1030.33
2023-04-18T09:14:52.661Z,1030.34
2023-04-18T09:15:56.973Z,1030.35
2023-04-18T09:17:01.348Z,1030.34
2023-04-18T09:18:05.705Z,1030.27
2023-04-18T09:19:09.993Z,1030.28
2023-04-18T09:20:14.079Z,1030.30
2023-04-18T09:21:18.700Z,1030.34
2023-04-18T09:22:22.757Z,1030.35
2023-04-18T09:23:27.110Z,1030.31
2023-04-18T09:24:31.727Z,1030.33
2023-04-18T09:25:36.346Z,1030.36
2023-04-18T09:26:40.646Z,1030.36
2023-04-18T09:27:45.964Z,1030.29
2023-04-18T09:28:50.841Z,1030.33
2023-04-18T09:29:56.477Z,1030.32
2023-04-18T09:30:58.825Z,1030.28
2023-04-18T09:32:03.078Z,1030.25
2023-04-18T09:33:07.536Z,1030.26
2023-04-18T09:34:11.571Z,1030.28
2023-04-18T09:35:16.360Z,1030.30
2023-04-18T09:36:20.526Z,1030.24
2023-04-18T09:37:24.508Z,1030.27
2023-04-18T09:38:28.861Z,1030.25
2023-04-18T09:39:33.202Z,1030.29
2023-04-18T09:40:37.546Z,1030.33
2023-04-18T09:41:41.880Z,1030.24
2023-04-18T09:42:46.244Z,1030.34
2023-04-18T09:43:50.820Z,1030.29
2023-04-18T09:44:56.885Z,1030.33
2023-04-18T09:45:59.339Z,1030.29
2023-04-18T09:47:03.840Z,1030.34
2023-04-18T09:48:07.953Z,1030.30
2023-04-18T09:49:12.704Z,1030.24
2023-04-18T09:50:16.855Z,1030.26
2023-04-18T09:51:20.935Z,1030.30
2023-04-18T09:52:25.272Z,1030.25
2023-04-18T09:53:29.873Z,1030.25
2023-04-18T09:54:34.188Z,1030.23
2023-04-18T09:55:38.289Z,1030.21
2023-04-18T09:56:42.881Z,1030.20
2023-04-18T09:57:48.235Z,1030.22
2023-04-18T09:58:52.599Z,1030.25
2023-04-18T09:59:56.899Z,1030.19
2023-04-18T10:01:00.983Z,1030.24
2023-04-18T10:02:05.891Z,1030.22
2023-04-18T10:03:10.096Z,1030.23
2023-04-18T10:04:14.692Z,1030.18
2023-04-18T10:05:20.957Z,1030.23
2023-04-18T10:06:22.954Z,1030.21
2023-04-18T10:07:27.045Z,1030.17
2023-04-18T10:08:31.368Z,1030.22
2023-04-18T10:09:35.965Z,1030.17
2023-04-18T10:10:40.572Z,1030.15
2023-04-18T10:11:44.646Z,1030.12
2023-04-18T10:12:48.735Z,1030.15
2023-04-18T10:13:53.341Z,1030.12
2023-04-18T10:14:57.465Z,1030.14
2023-04-18T10:16:02.106Z,1030.18
2023-04-18T10:17:06.118Z,1030.20
2023-04-18T10:18:10.745Z,1030.20
2023-04-18T10:19:15.250Z,1030.19
2023-04-18T10:20:19.667Z,1030.18
2023-04-18T10:21:24.046Z,1030.15
2023-04-18T10:22:28.085Z,1030.15
2023-04-18T10:23:32.429Z,1030.21
2023-04-18T10:24:36.498Z,1030.17
2023-04-18T10:25:41.106Z,1030.19
2023-04-18T10:26:45.460Z,1030.10
2023-04-18T10:27:51.105Z,1030.12
2023-04-18T10:28:55.389Z,1030.18
2023-04-18T10:29:59.483Z,1030.11
2023-04-18T10:31:03.729Z,1030.13
2023-04-18T10:32:08.156Z,1030.13
2023-04-18T10:33:21.866Z,1030.11
2023-04-18T10:34:16.587Z,1030.11
2023-04-18T10:35:21.173Z,1030.08
2023-04-18T10:36:25.515Z,1030.08
2023-04-18T10:37:30.112Z,1030.09
2023-04-18T10:38:34.440Z,1030.08
2023-04-18T10:39:38.265Z,1030.07
2023-04-18T10:40:42.598Z,1030.04
2023-04-18T10:41:48.798Z,1030.06
2023-04-18T10:42:51.525Z,1030.05
2023-04-18T10:43:55.617Z,1030.03
2023-04-18T10:45:00.218Z,1030.02
2023-04-18T10:46:04.540Z,1030.02
2023-04-18T10:47:09.179Z,1030.04
2023-04-18T10:48:12.977Z,1030.01
2023-04-18T10:49:17.303Z,1030.07
2023-04-18T10:50:21.707Z,1030.07
2023-04-18T10:51:26.230Z,1030.09
2023-04-18T10:52:30.570Z,1030.12
2023-04-18T10:53:34.908Z,1030.06
2023-04-18T10:54:39.354Z,1030.11
2023-04-18T10:55:43.615Z,1030.06
2023-04-18T10:56:48.199Z,1030.07
2023-04-18T10:57:53.536Z,1030.07
2023-04-18T10:58:57.367Z,1030.10
2023-04-18T11:00:02.052Z,1030.07
2023-04-18T11:01:06.069Z,1030.07
2023-04-18T11:02:10.438Z,1030.05
2023-04-18T11:03:15.289Z,1030.07
2023-04-18T11:04:19.936Z,1030.07
2023-04-18T11:05:23.669Z,1030.09
2023-04-18T11:06:27.816Z,1030.06
2023-04-18T11:07:32.360Z,1030.04
2023-04-18T11:08:36.438Z,1030.06
2023-04-18T11:09:40.800Z,1030.02
2023-04-18T11:10:45.405Z,1030.08
2023-04-18T11:11:49.475Z,1030.09
2023-04-18T11:12:54.074Z,1030.05
2023-04-18T11:13:58.651Z,1030.06
2023-04-18T11:15:02.468Z,1030.07
2023-04-18T11:16:07.070Z,1030.07
2023-04-18T11:17:11.146Z,1030.08
2023-04-18T11:18:15.552Z,1030.11
2023-04-18T11:19:19.857Z,1030.12
2023-04-18T11:20:24.160Z,1030.09
2023-04-18T11:21:30.442Z,1030.03
2023-04-18T11:22:33.069Z,1030.08
2023-04-18T11:23:37.411Z,1030.06
2023-04-18T11:24:41.761Z,1030.01
2023-04-18T11:25:46.143Z,1029.99
2023-04-18T11:26:50.157Z,1030.04
2023-04-18T11:27:56.026Z,1030.00
2023-04-18T11:28:59.844Z,1030.04
2023-04-18T11:30:04.206Z,1030.05
2023-04-18T11:31:08.797Z,1030.03
2023-04-18T11:32:13.168Z,1030.04
2023-04-18T11:33:17.324Z,1029.98
2023-04-18T11:34:21.851Z,1029.99
2023-04-18T11:35:26.174Z,1030.06
2023-04-18T11:36:30.265Z,1030.02
2023-04-18T11:37:34.866Z,1030.00
2023-04-18T11:38:38.965Z,1030.07
2023-04-18T11:39:43.820Z,1030.02
2023-04-18T11:40:47.960Z,1030.01
2023-04-18T11:41:52.258Z,1029.95
2023-04-18T11:42:56.357Z,1029.99
2023-04-18T11:44:00.665Z,1029.92
2023-04-18T11:45:05.009Z,1029.93
2023-04-18T11:46:09.376Z,1030.00
2023-04-18T11:47:13.689Z,1030.00
2023-04-18T11:48:18.285Z,1030.03
2023-04-18T11:49:22.634Z,1030.08
2023-04-18T11:50:27.238Z,1030.08
2023-04-18T11:51:31.300Z,1030.11
2023-04-18T11:52:35.400Z,1030.01
2023-04-18T11:53:39.723Z,1030.07
2023-04-18T11:54:44.057Z,1030.05
2023-04-18T11:55:48.674Z,1030.10
2023-04-18T11:56:53.016Z,1030.02
2023-04-18T11:57:58.647Z,1030.07
2023-04-18T11:59:02.939Z,1030.12
2023-04-18T12:00:07.024Z,1030.07
2023-04-18T12:01:11.096Z,1030.10
2023-04-18T12:02:17.044Z,1030.11
2023-04-18T12:03:20.398Z,1030.09
2023-04-18T12:04:24.333Z,1030.11
2023-04-18T12:05:28.681Z,1030.05
2023-04-18T12:06:33.194Z,1030.09
2023-04-18T12:07:37.675Z,1030.11
2023-04-18T12:08:42.005Z,1030.14
2023-04-18T12:09:45.833Z,1030.12
2023-04-18T12:10:50.487Z,1030.13
2023-04-18T12:11:54.524Z,1030.17
2023-04-18T12:12:59.119Z,1030.19
2023-04-18T12:14:04.206Z,1030.14
2023-04-18T12:15:07.579Z,1030.14
2023-04-18T12:16:12.453Z,1030.21
2023-04-18T12:17:16.479Z,1030.27
2023-04-18T12:18:20.834Z,1030.17
2023-04-18T12:19:25.144Z,1030.18
2023-04-18T12:20:29.491Z,1030.15
2023-04-18T12:21:33.837Z,1030.14
2023-04-18T12:22:38.233Z,1030.14
2023-04-18T12:23:42.256Z,1030.12
2023-04-18T12:24:46.861Z,1030.13
2023-04-18T12:25:51.202Z,1030.16
2023-04-18T12:26:55.585Z,1030.22
2023-04-18T12:28:00.899Z,1030.21
2023-04-18T12:29:04.977Z,1030.22
2023-04-18T12:30:09.570Z,1030.21
2023-04-18T12:31:13.921Z,1030.18
2023-04-18T12:32:17.988Z,1030.31
2023-04-18T12:33:22.830Z,1030.29
2023-04-18T12:34:27.198Z,1030.23
2023-04-18T12:35:31.016Z,1030.31
2023-04-18T12:36:35.618Z,1030.29
2023-04-18T12:37:39.946Z,1030.26
2023-04-18T12:38:44.315Z,1030.26
2023-04-18T12:39:48.629Z,1030.31
2023-04-18T12:40:52.721Z,1030.30
2023-04-18T12:41:57.326Z,1030.26
2023-04-18T12:43:03.779Z,1030.27
2023-04-18T12:44:06.271Z,1030.32
2023-04-18T12:45:10.096Z,1030.31
2023-04-18T12:46:14.707Z,1030.38
2023-04-18T12:47:19.065Z,1030.39
2023-04-18T12:48:23.100Z,1030.43
2023-04-18T12:49:27.739Z,1030.49
2023-04-18T12:50:32.051Z,1030.50
2023-04-18T12:51:36.655Z,1030.46
2023-04-18T12:52:41.006Z,1030.52
2023-04-18T12:53:45.074Z,1030.47
2023-04-18T12:54:49.219Z,1030.48
2023-04-18T12:55:53.741Z,1030.48
2023-04-18T12:56:57.866Z,1030.44
2023-04-18T12:58:04.258Z,1030.47